sensor_id;sensor_type;location;lat;lon;timestamp;pressure;altitude;pressure_sealevel;temperature;humidity
39051;BME280;24805;55.852;37.644;2022-12-18T00:00:22;98928.94;;;-1.25;71.21
39051;BME280;24805;55.852;37.644;2022-12-18T00:05:27;98922.41;;;-1.20;71.39
39051;BME280;24805;55.852;37.644;2022-12-18T00:10:29;98907.28;;;-1.26;71.18
39051;BME280;24805;55.852;37.644;2022-12-18T00:15:34;98888.34;;;-1.28;71.48
39051;BME280;24805;55.852;37.644;2022-12-18T00:20:37;98879.69;;;-1.40;71.59
39051;BME280;24805;55.852;37.644;2022-12-18T00:25:39;98866.94;;;-1.31;71.74
39051;BME280;24805;55.852;37.644;2022-12-18T00:30:41;98874.50;;;-1.28;71.84
39051;BME280;24805;55.852;37.644;2022-12-18T00:35:43;98860.44;;;-1.26;71.58
39051;BME280;24805;55.852;37.644;2022-12-18T00:40:46;98848.38;;;-1.27;71.79
39051;BME280;24805;55.852;37.644;2022-12-18T00:45:48;98846.72;;;-1.28;71.77
39051;BME280;24805;55.852;37.644;2022-12-18T00:50:50;98844.81;;;-1.26;71.61
39051;BME280;24805;55.852;37.644;2022-12-18T00:55:52;98836.06;;;-1.25;71.29
39051;BME280;24805;55.852;37.644;2022-12-18T01:00:54;98826.84;;;-1.29;71.56
39051;BME280;24805;55.852;37.644;2022-12-18T01:05:57;98828.47;;;-1.39;71.67
39051;BME280;24805;55.852;37.644;2022-12-18T01:10:59;98803.09;;;-1.47;71.56
39051;BME280;24805;55.852;37.644;2022-12-18T01:16:01;98810.97;;;-1.37;71.11
39051;BME280;24805;55.852;37.644;2022-12-18T01:21:08;98804.72;;;-1.34;71.34
39051;BME280;24805;55.852;37.644;2022-12-18T01:26:14;98790.78;;;-1.45;71.41
39051;BME280;24805;55.852;37.644;2022-12-18T01:31:28;98789.84;;;-1.55;71.13
39051;BME280;24805;55.852;37.644;2022-12-18T01:36:36;98781.69;;;-1.61;71.76
39051;BME280;24805;55.852;37.644;2022-12-18T01:41:39;98768.09;;;-1.65;71.30
39051;BME280;24805;55.852;37.644;2022-12-18T01:47:00;98783.69;;;-1.65;71.20
39051;BME280;24805;55.852;37.644;2022-12-18T01:52:02;98780.97;;;-1.75;70.88
39051;BME280;24805;55.852;37.644;2022-12-18T01:57:04;98776.00;;;-1.78;71.50
39051;BME280;24805;55.852;37.644;2022-12-18T02:02:07;98771.41;;;-1.74;71.24
39051;BME280;24805;55.852;37.644;2022-12-18T02:12:25;98774.34;;;-1.67;71.38
39051;BME280;24805;55.852;37.644;2022-12-18T02:17:40;98784.41;;;-1.63;71.04
39051;BME280;24805;55.852;37.644;2022-12-18T02:23:01;98779.09;;;-1.61;71.12
39051;BME280;24805;55.852;37.644;2022-12-18T02:28:09;98794.00;;;-1.63;71.13
39051;BME280;24805;55.852;37.644;2022-12-18T02:33:15;98789.84;;;-1.66;71.29
39051;BME280;24805;55.852;37.644;2022-12-18T02:38:17;98787.25;;;-1.66;71.18
39051;BME280;24805;55.852;37.644;2022-12-18T02:43:22;98786.53;;;-1.68;71.08
39051;BME280;24805;55.852;37.644;2022-12-18T02:48:31;98789.63;;;-1.63;71.07
39051;BME280;24805;55.852;37.644;2022-12-18T02:53:43;98781.69;;;-1.61;70.90
39051;BME280;24805;55.852;37.644;2022-12-18T02:58:58;98780.50;;;-1.68;71.02
39051;BME280;24805;55.852;37.644;2022-12-18T03:04:34;98774.34;;;-1.79;70.56
39051;BME280;24805;55.852;37.644;2022-12-18T03:09:42;98746.22;;;-1.85;70.78
39051;BME280;24805;55.852;37.644;2022-12-18T03:14:48;98755.56;;;-1.93;71.37
39051;BME280;24805;55.852;37.644;2022-12-18T03:19:53;98752.25;;;-1.84;70.74
39051;BME280;24805;55.852;37.644;2022-12-18T03:24:58;98760.28;;;-1.87;70.72
39051;BME280;24805;55.852;37.644;2022-12-18T03:30:07;98782.97;;;-1.89;70.54
39051;BME280;24805;55.852;37.644;2022-12-18T03:35:15;98758.63;;;-1.88;71.08
39051;BME280;24805;55.852;37.644;2022-12-18T03:40:29;98757.09;;;-2.02;70.87
39051;BME280;24805;55.852;37.644;2022-12-18T03:45:37;98783.22;;;-1.92;71.29
39051;BME280;24805;55.852;37.644;2022-12-18T03:50:56;98763.69;;;-1.98;71.12
39051;BME280;24805;55.852;37.644;2022-12-18T03:56:00;98789.00;;;-1.89;70.93
39051;BME280;24805;55.852;37.644;2022-12-18T04:01:09;98777.06;;;-1.91;71.36
39051;BME280;24805;55.852;37.644;2022-12-18T04:06:15;98753.19;;;-2.08;70.79
39051;BME280;24805;55.852;37.644;2022-12-18T04:11:19;98763.34;;;-2.04;70.93
39051;BME280;24805;55.852;37.644;2022-12-18T04:16:22;98761.81;;;-2.07;70.99
39051;BME280;24805;55.852;37.644;2022-12-18T04:21:27;98774.09;;;-2.09;71.52
39051;BME280;24805;55.852;37.644;2022-12-18T04:26:29;98779.56;;;-2.01;71.45
39051;BME280;24805;55.852;37.644;2022-12-18T04:31:50;98785.59;;;-2.00;71.07
39051;BME280;24805;55.852;37.644;2022-12-18T04:36:53;98804.84;;;-2.03;70.96
39051;BME280;24805;55.852;37.644;2022-12-18T04:42:00;98825.75;;;-2.04;71.51
39051;BME280;24805;55.852;37.644;2022-12-18T04:47:02;98851.72;;;-2.04;71.31
39051;BME280;24805;55.852;37.644;2022-12-18T04:52:04;98834.59;;;-2.07;70.89
39051;BME280;24805;55.852;37.644;2022-12-18T04:57:07;98858.44;;;-2.13;71.50
39051;BME280;24805;55.852;37.644;2022-12-18T05:02:10;98857.94;;;-2.18;71.46
39051;BME280;24805;55.852;37.644;2022-12-18T05:07:12;98863.25;;;-2.20;71.48
39051;BME280;24805;55.852;37.644;2022-12-18T05:12:14;98852.28;;;-2.23;71.14
39051;BME280;24805;55.852;37.644;2022-12-18T05:17:16;98852.16;;;-2.22;71.72
39051;BME280;24805;55.852;37.644;2022-12-18T05:22:18;98846.97;;;-2.22;71.02
39051;BME280;24805;55.852;37.644;2022-12-18T05:27:20;98859.97;;;-2.22;71.46
39051;BME280;24805;55.852;37.644;2022-12-18T05:32:23;98865.84;;;-2.20;71.73
39051;BME280;24805;55.852;37.644;2022-12-18T05:37:25;98872.13;;;-2.22;71.48
39051;BME280;24805;55.852;37.644;2022-12-18T05:42:27;98851.72;;;-2.39;71.59
39051;BME280;24805;55.852;37.644;2022-12-18T05:47:29;98896.06;;;-2.30;71.47
39051;BME280;24805;55.852;37.644;2022-12-18T05:52:31;98904.19;;;-2.34;71.49
39051;BME280;24805;55.852;37.644;2022-12-18T05:57:33;98923.19;;;-2.34;70.93
39051;BME280;24805;55.852;37.644;2022-12-18T06:02:35;98926.25;;;-2.40;71.71
39051;BME280;24805;55.852;37.644;2022-12-18T06:07:37;98918.50;;;-2.53;71.52
39051;BME280;24805;55.852;37.644;2022-12-18T06:12:39;98917.88;;;-2.56;71.06
39051;BME280;24805;55.852;37.644;2022-12-18T06:17:42;98947.84;;;-2.39;71.54
39051;BME280;24805;55.852;37.644;2022-12-18T06:22:45;98936.75;;;-2.41;71.53
39051;BME280;24805;55.852;37.644;2022-12-18T06:27:47;98963.72;;;-2.31;71.50
39051;BME280;24805;55.852;37.644;2022-12-18T06:32:50;98974.84;;;-2.29;71.92
39051;BME280;24805;55.852;37.644;2022-12-18T06:37:57;98973.47;;;-2.22;71.45
39051;BME280;24805;55.852;37.644;2022-12-18T06:42:59;98983.28;;;-2.15;71.46
39051;BME280;24805;55.852;37.644;2022-12-18T06:48:01;98950.91;;;-2.22;71.11
39051;BME280;24805;55.852;37.644;2022-12-18T06:53:04;98996.78;;;-2.10;71.18
39051;BME280;24805;55.852;37.644;2022-12-18T06:58:08;99014.16;;;-2.10;71.45
39051;BME280;24805;55.852;37.644;2022-12-18T07:03:12;99025.78;;;-2.03;71.59
39051;BME280;24805;55.852;37.644;2022-12-18T07:08:14;99030.16;;;-2.03;71.15
39051;BME280;24805;55.852;37.644;2022-12-18T07:13:16;99047.28;;;-2.01;71.61
39051;BME280;24805;55.852;37.644;2022-12-18T07:18:19;99032.97;;;-2.06;71.02
39051;BME280;24805;55.852;37.644;2022-12-18T07:23:21;99022.16;;;-2.13;71.32
39051;BME280;24805;55.852;37.644;2022-12-18T07:28:23;99041.63;;;-1.95;71.35
39051;BME280;24805;55.852;37.644;2022-12-18T07:33:25;99064.50;;;-1.87;71.65
39051;BME280;24805;55.852;37.644;2022-12-18T07:38:27;99087.56;;;-1.83;71.66
39051;BME280;24805;55.852;37.644;2022-12-18T07:43:30;99094.75;;;-1.86;71.10
39051;BME280;24805;55.852;37.644;2022-12-18T07:48:33;99089.34;;;-1.83;70.92
39051;BME280;24805;55.852;37.644;2022-12-18T07:53:36;99094.81;;;-1.75;71.35
39051;BME280;24805;55.852;37.644;2022-12-18T07:58:38;99101.34;;;-1.69;71.43
39051;BME280;24805;55.852;37.644;2022-12-18T08:03:40;99107.66;;;-1.61;71.84
39051;BME280;24805;55.852;37.644;2022-12-18T08:08:43;99094.19;;;-1.55;71.20
39051;BME280;24805;55.852;37.644;2022-12-18T08:13:45;99103.75;;;-1.55;71.21
39051;BME280;24805;55.852;37.644;2022-12-18T08:18:47;99096.34;;;-1.73;70.69
39051;BME280;24805;55.852;37.644;2022-12-18T08:23:54;99126.47;;;-1.57;70.68
39051;BME280;24805;55.852;37.644;2022-12-18T08:28:57;99143.09;;;-1.60;71.20
39051;BME280;24805;55.852;37.644;2022-12-18T08:34:00;99147.72;;;-1.63;70.88
39051;BME280;24805;55.852;37.644;2022-12-18T08:39:02;99177.34;;;-1.53;71.53
39051;BME280;24805;55.852;37.644;2022-12-18T08:44:04;99178.56;;;-1.46;71.47
39051;BME280;24805;55.852;37.644;2022-12-18T08:49:25;99172.78;;;-1.39;71.60
39051;BME280;24805;55.852;37.644;2022-12-18T08:54:27;99176.22;;;-1.38;70.98
39051;BME280;24805;55.852;37.644;2022-12-18T08:59:29;99169.25;;;-1.38;71.36
39051;BME280;24805;55.852;37.644;2022-12-18T09:04:31;99176.34;;;-1.40;70.99
39051;BME280;24805;55.852;37.644;2022-12-18T09:09:33;99180.50;;;-1.37;71.32
39051;BME280;24805;55.852;37.644;2022-12-18T09:14:35;99192.66;;;-1.38;71.47
39051;BME280;24805;55.852;37.644;2022-12-18T09:19:37;99203.25;;;-1.28;71.85
39051;BME280;24805;55.852;37.644;2022-12-18T09:24:40;99196.69;;;-1.21;72.03
39051;BME280;24805;55.852;37.644;2022-12-18T09:29:42;99210.28;;;-1.17;71.97
39051;BME280;24805;55.852;37.644;2022-12-18T09:34:44;99226.72;;;-1.17;71.32
39051;BME280;24805;55.852;37.644;2022-12-18T09:39:45;99223.91;;;-1.14;71.51
39051;BME280;24805;55.852;37.644;2022-12-18T09:44:51;99243.47;;;-1.08;71.68
39051;BME280;24805;55.852;37.644;2022-12-18T09:50:15;99258.56;;;-1.00;72.09
39051;BME280;24805;55.852;37.644;2022-12-18T09:55:31;99265.53;;;-1.01;71.53
39051;BME280;24805;55.852;37.644;2022-12-18T10:00:38;99256.69;;;-1.11;71.20
39051;BME280;24805;55.852;37.644;2022-12-18T10:06:07;99278.16;;;-1.08;71.40
39051;BME280;24805;55.852;37.644;2022-12-18T10:11:38;99270.22;;;-1.06;71.29
39051;BME280;24805;55.852;37.644;2022-12-18T10:22:39;99284.72;;;-1.15;71.43
39051;BME280;24805;55.852;37.644;2022-12-18T10:27:44;99280.19;;;-1.24;71.35
39051;BME280;24805;55.852;37.644;2022-12-18T10:32:46;99290.97;;;-1.17;71.86
39051;BME280;24805;55.852;37.644;2022-12-18T10:43:33;99279.97;;;-1.21;71.54
39051;BME280;24805;55.852;37.644;2022-12-18T10:53:42;99301.13;;;-1.38;71.47
39051;BME280;24805;55.852;37.644;2022-12-18T10:58:56;99294.88;;;-1.35;71.13
39051;BME280;24805;55.852;37.644;2022-12-18T11:04:01;99312.94;;;-1.45;71.00
39051;BME280;24805;55.852;37.644;2022-12-18T11:09:06;99325.09;;;-1.46;71.42
39051;BME280;24805;55.852;37.644;2022-12-18T11:14:28;99328.84;;;-1.50;70.99
39051;BME280;24805;55.852;37.644;2022-12-18T11:19:34;99325.72;;;-1.55;71.55
39051;BME280;24805;55.852;37.644;2022-12-18T11:24:37;99351.53;;;-1.52;71.48
39051;BME280;24805;55.852;37.644;2022-12-18T11:29:39;99361.00;;;-1.51;71.37
39051;BME280;24805;55.852;37.644;2022-12-18T11:34:51;99370.06;;;-1.44;71.28
39051;BME280;24805;55.852;37.644;2022-12-18T11:40:09;99376.41;;;-1.48;70.93
39051;BME280;24805;55.852;37.644;2022-12-18T11:50:24;99373.50;;;-1.56;71.30
39051;BME280;24805;55.852;37.644;2022-12-18T12:06:21;99397.13;;;-1.46;71.57
39051;BME280;24805;55.852;37.644;2022-12-18T12:11:42;99420.53;;;-1.59;71.32
39051;BME280;24805;55.852;37.644;2022-12-18T12:38:24;99471.31;;;-1.53;71.66
39051;BME280;24805;55.852;37.644;2022-12-18T12:48:46;99495.88;;;-1.57;71.32
39051;BME280;24805;55.852;37.644;2022-12-18T12:53:50;99507.72;;;-1.66;71.54
39051;BME280;24805;55.852;37.644;2022-12-18T12:59:15;99506.28;;;-1.57;71.18
39051;BME280;24805;55.852;37.644;2022-12-18T13:04:36;99524.81;;;-1.62;71.47
39051;BME280;24805;55.852;37.644;2022-12-18T13:15:29;99547.22;;;-1.74;70.85
39051;BME280;24805;55.852;37.644;2022-12-18T13:20:41;99531.78;;;-1.89;71.11
39051;BME280;24805;55.852;37.644;2022-12-18T13:30:55;99585.09;;;-1.82;71.47
39051;BME280;24805;55.852;37.644;2022-12-18T13:41:26;99606.31;;;-1.76;71.11
39051;BME280;24805;55.852;37.644;2022-12-18T13:46:42;99616.44;;;-1.71;71.38
39051;BME280;24805;55.852;37.644;2022-12-18T13:51:50;99639.94;;;-1.73;71.70
39051;BME280;24805;55.852;37.644;2022-12-18T13:56:53;99651.56;;;-1.78;71.54
39051;BME280;24805;55.852;37.644;2022-12-18T14:02:01;99646.63;;;-1.68;71.70
39051;BME280;24805;55.852;37.644;2022-12-18T14:07:11;99657.88;;;-1.68;71.32
39051;BME280;24805;55.852;37.644;2022-12-18T14:12:17;99639.44;;;-1.92;71.31
39051;BME280;24805;55.852;37.644;2022-12-18T14:17:39;99674.81;;;-1.89;71.79
39051;BME280;24805;55.852;37.644;2022-12-18T14:22:46;99704.41;;;-1.78;71.77
39051;BME280;24805;55.852;37.644;2022-12-18T14:27:57;99702.88;;;-1.80;72.01
39051;BME280;24805;55.852;37.644;2022-12-18T14:33:14;99703.97;;;-1.84;71.04
39051;BME280;24805;55.852;37.644;2022-12-18T14:38:21;99724.22;;;-1.89;71.09
39051;BME280;24805;55.852;37.644;2022-12-18T14:43:26;99729.41;;;-1.89;70.92
39051;BME280;24805;55.852;37.644;2022-12-18T14:48:38;99743.63;;;-1.95;71.29
39051;BME280;24805;55.852;37.644;2022-12-18T14:53:44;99743.19;;;-2.01;71.39
39051;BME280;24805;55.852;37.644;2022-12-18T15:03:58;99763.16;;;-2.02;71.51
39051;BME280;24805;55.852;37.644;2022-12-18T15:09:18;99751.69;;;-2.14;71.13
39051;BME280;24805;55.852;37.644;2022-12-18T15:19:39;99789.16;;;-2.02;71.01
39051;BME280;24805;55.852;37.644;2022-12-18T15:24:42;99792.53;;;-2.16;71.03
39051;BME280;24805;55.852;37.644;2022-12-18T15:29:59;99792.94;;;-2.08;71.43
39051;BME280;24805;55.852;37.644;2022-12-18T15:35:24;99806.03;;;-2.09;70.54
39051;BME280;24805;55.852;37.644;2022-12-18T15:40:26;99804.34;;;-2.24;70.46
39051;BME280;24805;55.852;37.644;2022-12-18T15:45:28;99812.47;;;-2.30;70.93
39051;BME280;24805;55.852;37.644;2022-12-18T15:50:30;99817.75;;;-2.32;71.07
39051;BME280;24805;55.852;37.644;2022-12-18T15:55:32;99816.25;;;-2.36;70.89
39051;BME280;24805;55.852;37.644;2022-12-18T16:01:01;99829.44;;;-2.39;70.88
39051;BME280;24805;55.852;37.644;2022-12-18T16:06:03;99837.34;;;-2.40;70.93
39051;BME280;24805;55.852;37.644;2022-12-18T16:11:05;99870.44;;;-2.44;70.76
39051;BME280;24805;55.852;37.644;2022-12-18T16:16:08;99863.69;;;-2.62;70.80
39051;BME280;24805;55.852;37.644;2022-12-18T16:21:10;99880.66;;;-2.57;70.76
39051;BME280;24805;55.852;37.644;2022-12-18T16:26:12;99893.34;;;-2.66;69.93
39051;BME280;24805;55.852;37.644;2022-12-18T16:31:14;99878.28;;;-2.91;70.67
39051;BME280;24805;55.852;37.644;2022-12-18T16:36:16;99918.22;;;-2.78;70.59
39051;BME280;24805;55.852;37.644;2022-12-18T16:41:19;99921.66;;;-2.93;70.35
39051;BME280;24805;55.852;37.644;2022-12-18T16:46:33;99936.22;;;-3.06;69.94
39051;BME280;24805;55.852;37.644;2022-12-18T16:51:35;99947.09;;;-3.16;69.63
39051;BME280;24805;55.852;37.644;2022-12-18T16:56:37;99947.72;;;-3.28;70.08
39051;BME280;24805;55.852;37.644;2022-12-18T17:01:40;99932.81;;;-3.40;69.71
39051;BME280;24805;55.852;37.644;2022-12-18T17:06:44;99962.88;;;-3.53;69.91
39051;BME280;24805;55.852;37.644;2022-12-18T17:11:49;99982.09;;;-3.74;69.36
39051;BME280;24805;55.852;37.644;2022-12-18T17:16:52;99988.06;;;-3.90;69.17
39051;BME280;24805;55.852;37.644;2022-12-18T17:22:14;99962.88;;;-4.22;69.33
39051;BME280;24805;55.852;37.644;2022-12-18T17:27:16;99995.81;;;-4.07;69.63
39051;BME280;24805;55.852;37.644;2022-12-18T17:32:18;100008.00;;;-4.09;69.58
39051;BME280;24805;55.852;37.644;2022-12-18T17:37:20;100014.94;;;-4.09;70.44
39051;BME280;24805;55.852;37.644;2022-12-18T17:42:22;100019.06;;;-4.05;69.20
39051;BME280;24805;55.852;37.644;2022-12-18T17:47:24;100028.25;;;-4.17;69.54
39051;BME280;24805;55.852;37.644;2022-12-18T17:52:26;100022.81;;;-4.30;69.15
39051;BME280;24805;55.852;37.644;2022-12-18T17:57:29;100038.31;;;-4.47;68.93
39051;BME280;24805;55.852;37.644;2022-12-18T18:02:31;100046.22;;;-4.69;68.81
39051;BME280;24805;55.852;37.644;2022-12-18T18:07:34;100059.19;;;-4.89;69.02
39051;BME280;24805;55.852;37.644;2022-12-18T18:12:36;100067.22;;;-4.95;68.36
39051;BME280;24805;55.852;37.644;2022-12-18T18:17:57;100050.38;;;-5.04;69.35
39051;BME280;24805;55.852;37.644;2022-12-18T18:23:01;100023.38;;;-5.18;69.15
39051;BME280;24805;55.852;37.644;2022-12-18T18:28:03;100093.34;;;-4.81;69.74
39051;BME280;24805;55.852;37.644;2022-12-18T18:33:05;100097.75;;;-4.83;69.86
39051;BME280;24805;55.852;37.644;2022-12-18T18:38:12;100101.50;;;-4.90;68.59
39051;BME280;24805;55.852;37.644;2022-12-18T18:43:14;100114.91;;;-5.21;68.37
39051;BME280;24805;55.852;37.644;2022-12-18T18:48:16;100089.59;;;-5.55;68.27
39051;BME280;24805;55.852;37.644;2022-12-18T18:53:18;100135.00;;;-5.48;68.36
39051;BME280;24805;55.852;37.644;2022-12-18T18:58:20;100138.31;;;-5.66;68.32
39051;BME280;24805;55.852;37.644;2022-12-18T19:03:22;100145.88;;;-5.83;68.19
39051;BME280;24805;55.852;37.644;2022-12-18T19:08:28;100167.34;;;-5.81;68.05
39051;BME280;24805;55.852;37.644;2022-12-18T19:13:32;100178.69;;;-5.85;68.78
39051;BME280;24805;55.852;37.644;2022-12-18T19:18:34;100179.66;;;-5.88;68.38
39051;BME280;24805;55.852;37.644;2022-12-18T19:23:39;100170.03;;;-5.84;69.04
39051;BME280;24805;55.852;37.644;2022-12-18T19:28:42;100189.28;;;-5.92;68.64
39051;BME280;24805;55.852;37.644;2022-12-18T19:33:46;100198.88;;;-5.95;68.55
39051;BME280;24805;55.852;37.644;2022-12-18T19:38:49;100198.28;;;-6.02;68.36
39051;BME280;24805;55.852;37.644;2022-12-18T19:43:52;100209.22;;;-6.18;68.25
39051;BME280;24805;55.852;37.644;2022-12-18T19:48:58;100191.66;;;-6.32;67.85
39051;BME280;24805;55.852;37.644;2022-12-18T19:54:01;100217.25;;;-6.26;68.21
39051;BME280;24805;55.852;37.644;2022-12-18T19:59:03;100248.34;;;-6.29;68.14
39051;BME280;24805;55.852;37.644;2022-12-18T20:04:06;100237.44;;;-6.37;67.65
39051;BME280;24805;55.852;37.644;2022-12-18T20:09:09;100229.50;;;-6.56;67.81
39051;BME280;24805;55.852;37.644;2022-12-18T20:14:12;100255.94;;;-6.49;66.98
39051;BME280;24805;55.852;37.644;2022-12-18T20:19:19;100263.09;;;-6.57;67.79
39051;BME280;24805;55.852;37.644;2022-12-18T20:24:22;100261.59;;;-6.63;68.19
39051;BME280;24805;55.852;37.644;2022-12-18T20:29:24;100270.09;;;-6.59;68.23
39051;BME280;24805;55.852;37.644;2022-12-18T20:34:26;100270.38;;;-6.69;68.24
39051;BME280;24805;55.852;37.644;2022-12-18T20:39:29;100274.13;;;-6.79;67.90
39051;BME280;24805;55.852;37.644;2022-12-18T20:44:32;100270.09;;;-6.86;67.86
39051;BME280;24805;55.852;37.644;2022-12-18T20:49:34;100281.13;;;-6.81;67.76
39051;BME280;24805;55.852;37.644;2022-12-18T20:54:38;100277.47;;;-6.75;67.99
39051;BME280;24805;55.852;37.644;2022-12-18T20:59:40;100279.91;;;-6.71;68.29
39051;BME280;24805;55.852;37.644;2022-12-18T21:04:49;100282.47;;;-6.71;68.08
39051;BME280;24805;55.852;37.644;2022-12-18T21:09:51;100289.38;;;-6.71;68.45
39051;BME280;24805;55.852;37.644;2022-12-18T21:14:53;100296.38;;;-6.75;67.85
39051;BME280;24805;55.852;37.644;2022-12-18T21:19:55;100297.63;;;-6.86;67.90
39051;BME280;24805;55.852;37.644;2022-12-18T21:24:57;100302.00;;;-6.88;67.71
39051;BME280;24805;55.852;37.644;2022-12-18T21:29:59;100309.88;;;-6.93;67.49
39051;BME280;24805;55.852;37.644;2022-12-18T21:35:02;100309.06;;;-6.95;68.31
39051;BME280;24805;55.852;37.644;2022-12-18T21:40:05;100311.75;;;-6.98;67.18
39051;BME280;24805;55.852;37.644;2022-12-18T21:45:07;100289.91;;;-7.14;67.94
39051;BME280;24805;55.852;37.644;2022-12-18T21:50:09;100311.72;;;-7.24;67.52
39051;BME280;24805;55.852;37.644;2022-12-18T21:55:11;100318.25;;;-7.41;67.21
39051;BME280;24805;55.852;37.644;2022-12-18T22:00:14;100339.59;;;-7.37;67.15
39051;BME280;24805;55.852;37.644;2022-12-18T22:05:20;100339.84;;;-7.45;67.39
39051;BME280;24805;55.852;37.644;2022-12-18T22:10:22;100336.47;;;-7.47;67.58
39051;BME280;24805;55.852;37.644;2022-12-18T22:15:24;100338.66;;;-7.35;67.64
39051;BME280;24805;55.852;37.644;2022-12-18T22:20:27;100334.31;;;-7.33;67.52
39051;BME280;24805;55.852;37.644;2022-12-18T22:25:30;100338.50;;;-7.28;68.05
39051;BME280;24805;55.852;37.644;2022-12-18T22:30:34;100330.81;;;-7.30;67.21
39051;BME280;24805;55.852;37.644;2022-12-18T22:35:36;100316.56;;;-7.42;67.37
39051;BME280;24805;55.852;37.644;2022-12-18T22:40:39;100347.16;;;-7.31;67.44
39051;BME280;24805;55.852;37.644;2022-12-18T22:45:41;100340.28;;;-7.31;67.15
39051;BME280;24805;55.852;37.644;2022-12-18T22:50:49;100343.81;;;-7.35;68.21
39051;BME280;24805;55.852;37.644;2022-12-18T22:56:00;100353.53;;;-7.15;67.82
39051;BME280;24805;55.852;37.644;2022-12-18T23:01:03;100359.38;;;-7.08;67.42
39051;BME280;24805;55.852;37.644;2022-12-18T23:06:06;100366.94;;;-7.02;67.60
39051;BME280;24805;55.852;37.644;2022-12-18T23:11:10;100352.16;;;-6.99;68.48
39051;BME280;24805;55.852;37.644;2022-12-18T23:16:15;100374.28;;;-6.90;68.27
39051;BME280;24805;55.852;37.644;2022-12-18T23:21:18;100370.75;;;-6.87;67.81
39051;BME280;24805;55.852;37.644;2022-12-18T23:26:23;100386.19;;;-6.86;68.45
39051;BME280;24805;55.852;37.644;2022-12-18T23:31:28;100383.31;;;-6.77;68.34
39051;BME280;24805;55.852;37.644;2022-12-18T23:36:31;100390.03;;;-6.71;67.60
39051;BME280;24805;55.852;37.644;2022-12-18T23:41:46;100397.63;;;-6.67;67.52
39051;BME280;24805;55.852;37.644;2022-12-18T23:46:48;100408.75;;;-6.65;67.60
39051;BME280;24805;55.852;37.644;2022-12-18T23:51:52;100416.25;;;-6.57;67.51
39051;BME280;24805;55.852;37.644;2022-12-18T23:56:55;100420.59;;;-6.59;68.49
